createdAt,value
2023-04-16T00:01:56.608Z,92198.53
2023-04-16T00:04:26.133Z,92196.91
2023-04-16T00:06:56.021Z,92199.34
2023-04-16T00:09:26.890Z,92197.13
2023-04-16T00:11:56.252Z,92201.66
2023-04-16T00:14:25.556Z,92194.41
2023-04-16T00:16:54.941Z,92187.38
2023-04-16T00:19:24.311Z,92189.44
2023-04-16T00:21:53.673Z,92186.13
2023-04-16T00:24:22.903Z,92185.06
2023-04-16T00:26:53.594Z,92190.38
2023-04-16T00:29:22.836Z,92185.44
2023-04-16T00:31:52.146Z,92180.63
2023-04-16T00:34:21.442Z,92182.50
2023-04-16T00:36:50.657Z,92183.84
2023-04-16T00:39:19.999Z,92180.53
2023-04-16T00:41:49.525Z,92181.13
2023-04-16T00:44:20.208Z,92187.28
2023-04-16T00:50:04.135Z,92187.91
2023-04-16T00:52:34.999Z,92182.72
2023-04-16T00:55:04.828Z,92188.88
2023-04-16T00:57:34.327Z,92190.09
2023-04-16T01:00:04.077Z,92196.94
2023-04-16T01:02:33.731Z,92185.94
2023-04-16T01:05:05.977Z,92180.63
2023-04-16T01:07:35.279Z,92178.84
2023-04-16T01:10:05.177Z,92181.44
2023-04-16T01:12:34.658Z,92183.22
2023-04-16T01:15:04.264Z,92190.22
2023-04-16T01:17:33.736Z,92187.03
2023-04-16T01:20:04.681Z,92189.19
2023-04-16T01:22:35.477Z,92189.19
2023-04-16T01:25:05.002Z,92188.38
2023-04-16T01:27:34.356Z,92186.59
2023-04-16T01:30:03.575Z,92191.09
2023-04-16T01:32:34.552Z,92189.00
2023-04-16T01:35:04.021Z,92198.59
2023-04-16T01:37:35.036Z,92193.06
2023-04-16T01:40:04.473Z,92193.06
2023-04-16T01:42:34.413Z,92194.31
2023-04-16T01:45:03.751Z,92197.66
2023-04-16T01:47:33.366Z,92193.25
2023-04-16T01:50:04.643Z,92200.63
2023-04-16T01:52:35.532Z,92205.00
2023-04-16T01:55:04.924Z,92196.38
2023-04-16T01:57:34.265Z,92193.63
2023-04-16T02:00:03.839Z,92196.94
2023-04-16T02:02:34.001Z,92188.03
2023-04-16T02:05:04.113Z,92196.81
2023-04-16T02:07:35.028Z,92193.41
2023-04-16T02:10:05.438Z,92189.69
2023-04-16T02:12:34.756Z,92180.56
2023-04-16T02:15:05.517Z,92188.94
2023-04-16T02:17:34.860Z,92182.44
2023-04-16T02:20:06.694Z,92187.50
2023-04-16T02:22:38.824Z,92190.97
2023-04-16T02:25:09.141Z,92185.69
2023-04-16T02:27:38.464Z,92187.25
2023-04-16T02:30:09.688Z,92187.84
2023-04-16T02:32:39.168Z,92189.78
2023-04-16T02:35:09.551Z,92183.97
2023-04-16T02:37:41.210Z,92186.91
2023-04-16T02:40:12.871Z,92171.28
2023-04-16T02:42:42.188Z,92179.78
2023-04-16T02:45:13.529Z,92173.75
2023-04-16T02:47:42.918Z,92165.25
2023-04-16T02:50:13.277Z,92163.84
2023-04-16T02:52:44.035Z,92160.91
2023-04-16T02:55:14.246Z,92163.06
2023-04-16T02:57:43.718Z,92160.22
2023-04-16T03:00:14.366Z,92161.28
2023-04-16T03:02:43.775Z,92160.66
2023-04-16T03:05:13.202Z,92163.03
2023-04-16T03:07:43.973Z,92169.97
2023-04-16T03:10:14.153Z,92172.72
2023-04-16T03:12:43.631Z,92171.66
2023-04-16T03:15:13.645Z,92179.47
2023-04-16T03:17:43.173Z,92184.56
2023-04-16T03:20:13.213Z,92186.91
2023-04-16T03:22:44.056Z,92188.69
2023-04-16T03:25:13.448Z,92195.47
2023-04-16T03:27:43.049Z,92197.25
2023-04-16T03:30:14.463Z,92198.09
2023-04-16T03:32:43.998Z,92201.75
2023-04-16T03:35:14.112Z,92199.66
2023-04-16T03:37:44.832Z,92210.56
2023-04-16T03:40:15.511Z,92205.50
2023-04-16T03:42:44.934Z,92208.00
2023-04-16T03:45:15.213Z,92205.78
2023-04-16T03:51:03.273Z,92211.47
2023-04-16T03:53:32.538Z,92219.66
2023-04-16T03:56:01.781Z,92217.78
2023-04-16T03:58:31.695Z,92216.81
2023-04-16T04:01:01.042Z,92223.22
2023-04-16T04:03:30.465Z,92222.03
2023-04-16T04:06:01.531Z,92218.13
2023-04-16T04:08:30.971Z,92224.03
2023-04-16T04:11:00.207Z,92216.94
2023-04-16T04:13:29.533Z,92223.44
2023-04-16T04:15:58.927Z,92221.41
2023-04-16T04:18:28.209Z,92222.25
2023-04-16T04:20:58.019Z,92227.09
2023-04-16T04:23:28.792Z,92228.75
2023-04-16T04:25:58.093Z,92231.00
2023-04-16T04:28:27.603Z,92235.97
2023-04-16T04:30:56.997Z,92244.25
2023-04-16T04:33:26.690Z,92237.16
2023-04-16T04:35:56.638Z,92237.16
2023-04-16T04:38:27.766Z,92239.50
2023-04-16T04:40:56.997Z,92227.91
2023-04-16T04:43:26.835Z,92231.00
2023-04-16T04:45:56.533Z,92230.38
2023-04-16T04:48:26.922Z,92234.53
2023-04-16T04:50:56.345Z,92234.41
2023-04-16T04:53:25.727Z,92237.78
2023-04-16T04:55:58.790Z,92237.09
2023-04-16T04:58:38.300Z,92236.13
2023-04-16T05:01:07.881Z,92237.31
2023-04-16T05:03:37.705Z,92229.13
2023-04-16T05:06:08.167Z,92228.53
2023-04-16T05:08:37.517Z,92231.44
2023-04-16T05:11:08.427Z,92226.59
2023-04-16T05:13:37.618Z,92232.00
2023-04-16T05:16:08.139Z,92238.25
2023-04-16T05:18:37.447Z,92232.56
2023-04-16T05:21:07.509Z,92234.53
2023-04-16T05:23:36.891Z,92239.25
2023-04-16T05:26:07.907Z,92236.97
2023-04-16T05:28:37.237Z,92233.47
2023-04-16T05:31:06.752Z,92234.47
2023-04-16T05:33:36.349Z,92231.09
2023-04-16T05:36:06.656Z,92244.19
2023-04-16T05:38:36.170Z,92241.66
2023-04-16T05:41:06.950Z,92246.94
2023-04-16T05:43:36.291Z,92246.00
2023-04-16T05:46:05.784Z,92245.78
2023-04-16T05:48:35.107Z,92239.94
2023-04-16T05:51:04.414Z,92246.22
2023-04-16T05:53:33.767Z,92247.75
2023-04-16T05:56:02.990Z,92242.81
2023-04-16T05:58:33.996Z,92241.22
2023-04-16T06:01:03.621Z,92249.63
2023-04-16T06:03:33.047Z,92235.72
2023-04-16T06:06:02.621Z,92237.94
2023-04-16T06:08:32.088Z,92233.16
2023-04-16T06:11:01.520Z,92236.16
2023-04-16T06:13:32.545Z,92236.03
2023-04-16T06:16:01.907Z,92225.94
2023-04-16T06:18:31.488Z,92226.22
2023-04-16T06:21:01.122Z,92231.34
2023-04-16T06:23:30.432Z,92232.16
2023-04-16T06:25:59.947Z,92233.25
2023-04-16T06:28:29.198Z,92232.59
2023-04-16T06:30:59.931Z,92230.50
2023-04-16T06:33:29.484Z,92230.84
2023-04-16T06:35:58.868Z,92225.31
2023-04-16T06:38:28.167Z,92233.88
2023-04-16T06:40:58.612Z,92240.16
2023-04-16T06:43:28.069Z,92230.09
2023-04-16T06:45:59.949Z,92236.66
2023-04-16T06:51:03.230Z,92241.53
2023-04-16T06:53:33.249Z,92239.59
2023-04-16T06:56:02.691Z,92242.13
2023-04-16T06:58:32.212Z,92240.59
2023-04-16T07:01:02.865Z,92246.91
2023-04-16T07:03:32.560Z,92246.00
2023-04-16T07:06:03.347Z,92250.97
2023-04-16T07:08:32.749Z,92242.63
2023-04-16T07:11:02.255Z,92237.59
2023-04-16T07:13:31.718Z,92240.75
2023-04-16T07:16:01.188Z,92231.16
2023-04-16T07:18:30.599Z,92228.69
2023-04-16T07:21:01.581Z,92233.81
2023-04-16T07:23:31.289Z,92245.94
2023-04-16T07:26:00.989Z,92243.34
2023-04-16T07:28:30.344Z,92238.16
2023-04-16T07:30:59.737Z,92245.34
2023-04-16T07:33:29.088Z,92242.53
2023-04-16T07:35:59.411Z,92237.47
2023-04-16T07:38:30.247Z,92239.94
2023-04-16T07:40:59.573Z,92245.91
2023-04-16T07:43:28.929Z,92248.31
2023-04-16T07:45:58.361Z,92250.31
2023-04-16T07:48:28.177Z,92248.13
2023-04-16T07:50:57.512Z,92239.91
2023-04-16T07:53:28.309Z,92243.41
2023-04-16T07:55:57.826Z,92242.44
2023-04-16T07:58:27.146Z,92236.69
2023-04-16T08:00:56.693Z,92234.88
2023-04-16T08:03:26.237Z,92230.25
2023-04-16T08:05:55.919Z,92231.72
2023-04-16T08:08:25.231Z,92235.34
2023-04-16T08:10:56.250Z,92236.03
2023-04-16T08:13:25.718Z,92230.13
2023-04-16T08:15:55.062Z,92236.84
2023-04-16T08:18:24.794Z,92230.59
2023-04-16T08:20:54.017Z,92233.19
2023-04-16T08:23:23.497Z,92236.94
2023-04-16T08:25:53.121Z,92242.53
2023-04-16T08:28:24.156Z,92236.03
2023-04-16T08:30:53.432Z,92231.16
2023-04-16T08:33:23.744Z,92234.97
2023-04-16T08:35:53.231Z,92237.72
2023-04-16T08:38:22.710Z,92234.34
2023-04-16T08:40:52.074Z,92241.44
2023-04-16T08:43:23.848Z,92236.75
2023-04-16T08:45:56.573Z,92238.66
2023-04-16T08:48:26.748Z,92238.31
2023-04-16T08:50:57.092Z,92230.72
2023-04-16T08:53:37.610Z,92237.28
2023-04-16T08:56:08.135Z,92235.75
2023-04-16T08:58:40.150Z,92237.72
2023-04-16T09:01:12.377Z,92236.06
2023-04-16T09:03:43.277Z,92233.69
2023-04-16T09:06:13.537Z,92242.19
2023-04-16T09:08:43.750Z,92238.09
2023-04-16T09:11:15.034Z,92247.44
2023-04-16T09:13:46.012Z,92239.09
2023-04-16T09:16:16.724Z,92235.88
2023-04-16T09:18:48.038Z,92231.47
2023-04-16T09:21:17.948Z,92238.00
2023-04-16T09:23:47.768Z,92237.34
2023-04-16T09:26:17.150Z,92236.59
2023-04-16T09:28:51.079Z,92242.16
2023-04-16T09:31:21.881Z,92240.94
2023-04-16T09:34:05.092Z,92232.31
2023-04-16T09:36:35.592Z,92232.50
2023-04-16T09:39:06.588Z,92234.56
2023-04-16T09:41:39.801Z,92232.97
2023-04-16T09:44:10.698Z,92236.59
2023-04-16T09:46:44.185Z,92227.88
2023-04-16T09:51:04.214Z,92220.28
2023-04-16T09:53:34.753Z,92220.38
2023-04-16T09:56:07.134Z,92220.69
2023-04-16T09:58:39.337Z,92217.34
2023-04-16T10:01:11.132Z,92215.28
2023-04-16T10:03:42.144Z,92207.22
2023-04-16T10:06:18.317Z,92200.47
2023-04-16T10:08:50.470Z,92190.38
2023-04-16T10:11:21.080Z,92196.78
2023-04-16T10:13:51.188Z,92203.63
2023-04-16T10:16:20.754Z,92196.09
2023-04-16T10:18:50.265Z,92204.06
2023-04-16T10:21:22.517Z,92196.50
2023-04-16T10:23:53.779Z,92191.09
2023-04-16T10:26:25.015Z,92195.53
2023-04-16T10:28:55.115Z,92194.22
2023-04-16T10:31:25.643Z,92192.72
2023-04-16T10:33:55.355Z,92192.91
2023-04-16T10:36:28.261Z,92202.13
2023-04-16T10:39:01.406Z,92199.28
2023-04-16T10:41:32.281Z,92211.97
2023-04-16T10:44:10.025Z,92207.50
2023-04-16T10:46:41.871Z,92212.38
2023-04-16T10:49:19.399Z,92209.53
2023-04-16T10:52:02.525Z,92218.78
2023-04-16T10:54:34.416Z,92222.19
2023-04-16T10:57:07.348Z,92218.66
2023-04-16T10:59:39.835Z,92225.09
2023-04-16T11:02:11.018Z,92217.16
2023-04-16T11:04:41.871Z,92221.81
2023-04-16T11:07:20.184Z,92218.91
2023-04-16T11:10:00.915Z,92218.72
2023-04-16T11:12:38.616Z,92214.69
2023-04-16T11:15:10.527Z,92215.44
2023-04-16T11:17:42.761Z,92219.34
2023-04-16T11:20:19.771Z,92216.44
2023-04-16T11:22:52.690Z,92210.66
2023-04-16T11:25:23.205Z,92212.84
2023-04-16T11:27:53.270Z,92214.00
2023-04-16T11:30:34.119Z,92208.34
2023-04-16T11:33:05.180Z,92210.03
2023-04-16T11:35:34.602Z,92194.66
2023-04-16T11:38:06.642Z,92193.31
2023-04-16T11:40:36.675Z,92191.34
2023-04-16T11:43:16.135Z,92189.06
2023-04-16T11:46:01.612Z,92186.72
2023-04-16T11:48:51.280Z,92181.63
2023-04-16T11:51:23.639Z,92185.47
2023-04-16T11:53:56.378Z,92175.44
2023-04-16T11:56:28.950Z,92179.34
2023-04-16T11:59:13.129Z,92171.25
2023-04-16T12:01:46.322Z,92167.72
2023-04-16T12:04:17.504Z,92176.09
2023-04-16T12:07:12.006Z,92166.97
2023-04-16T12:09:44.965Z,92173.06
2023-04-16T12:12:31.638Z,92166.94
2023-04-16T12:15:04.024Z,92158.84
2023-04-16T12:17:35.527Z,92157.22
2023-04-16T12:20:11.220Z,92145.06
2023-04-16T12:22:45.950Z,92150.53
2023-04-16T12:25:18.473Z,92140.69
2023-04-16T12:27:53.445Z,92139.72
2023-04-16T12:30:26.347Z,92136.59
2023-04-16T12:33:16.106Z,92144.00
2023-04-16T12:35:45.715Z,92139.91
2023-04-16T12:38:15.649Z,92133.63
2023-04-16T12:40:46.606Z,92125.75
2023-04-16T12:43:16.178Z,92136.75
2023-04-16T12:45:45.692Z,92121.78
2023-04-16T12:51:02.971Z,92128.38
2023-04-16T12:53:32.350Z,92126.88
2023-04-16T12:56:01.819Z,92118.16
2023-04-16T12:58:31.100Z,92124.41
2023-04-16T13:01:00.487Z,92119.59
2023-04-16T13:03:31.242Z,92115.81
2023-04-16T13:06:02.490Z,92108.09
2023-04-16T13:08:32.313Z,92107.97
2023-04-16T13:11:01.693Z,92094.16
2023-04-16T13:13:31.192Z,92091.19
2023-04-16T13:16:00.646Z,92088.00
2023-04-16T13:18:30.021Z,92092.09
2023-04-16T13:20:59.394Z,92088.00
2023-04-16T13:23:30.372Z,92080.44
2023-04-16T13:25:59.714Z,92078.47
2023-04-16T13:28:29.094Z,92072.03
2023-04-16T13:30:58.748Z,92071.13
2023-04-16T13:33:29.085Z,92071.91
2023-04-16T13:35:58.479Z,92078.81
2023-04-16T13:38:29.234Z,92080.84
2023-04-16T13:40:58.479Z,92078.63
2023-04-16T13:43:27.833Z,92074.06
2023-04-16T13:45:57.253Z,92080.84
2023-04-16T13:48:26.892Z,92077.22
2023-04-16T13:50:56.208Z,92069.59
2023-04-16T13:53:25.628Z,92082.28
2023-04-16T13:55:56.386Z,92082.25
2023-04-16T13:58:25.742Z,92081.59
2023-04-16T14:00:55.070Z,92091.44
2023-04-16T14:03:24.696Z,92096.53
2023-04-16T14:05:54.109Z,92090.41
2023-04-16T14:08:23.593Z,92094.72
2023-04-16T14:10:55.614Z,92096.19
2023-04-16T14:13:25.613Z,92100.47
2023-04-16T14:15:56.326Z,92098.00
2023-04-16T14:18:25.630Z,92101.63
2023-04-16T14:20:54.977Z,92108.81
2023-04-16T14:23:24.296Z,92105.84
2023-04-16T14:25:55.371Z,92102.84
2023-04-16T14:28:24.805Z,92104.59
2023-04-16T14:30:54.238Z,92110.81
2023-04-16T14:33:24.010Z,92104.88
2023-04-16T14:35:53.357Z,92109.06
2023-04-16T14:38:22.762Z,92106.63
2023-04-16T14:40:52.147Z,92109.91
2023-04-16T14:43:23.114Z,92106.19
2023-04-16T14:45:52.923Z,92101.84
2023-04-16T14:48:22.472Z,92099.84
2023-04-16T14:50:51.900Z,92093.53
2023-04-16T14:53:21.217Z,92091.38
2023-04-16T14:55:50.709Z,92097.25
2023-04-16T14:58:22.111Z,92105.72
2023-04-16T15:00:51.518Z,92106.00
2023-04-16T15:03:21.060Z,92113.63
2023-04-16T15:05:55.919Z,92110.34
2023-04-16T15:08:25.785Z,92115.69
2023-04-16T15:10:55.139Z,92107.44
2023-04-16T15:13:25.927Z,92108.94
2023-04-16T15:15:55.353Z,92101.31
2023-04-16T15:18:24.936Z,92098.50
2023-04-16T15:20:54.645Z,92102.41
2023-04-16T15:23:24.252Z,92098.69
2023-04-16T15:25:53.580Z,92092.28
2023-04-16T15:28:24.420Z,92104.94
2023-04-16T15:30:54.558Z,92103.84
2023-04-16T15:33:24.170Z,92101.66
2023-04-16T15:35:53.637Z,92108.25
2023-04-16T15:38:23.257Z,92094.78
2023-04-16T15:40:52.513Z,92112.59
2023-04-16T15:43:22.013Z,92115.88
2023-04-16T15:45:52.862Z,92114.16
2023-04-16T15:51:02.993Z,92117.31
2023-04-16T15:53:32.702Z,92126.91
2023-04-16T15:56:02.845Z,92125.41
2023-04-16T15:58:32.290Z,92124.75
2023-04-16T16:01:01.496Z,92118.81
2023-04-16T16:03:33.172Z,92113.72
2023-04-16T16:06:05.207Z,92107.22
2023-04-16T16:08:38.015Z,92111.47
2023-04-16T16:11:07.315Z,92113.81
2023-04-16T16:13:37.254Z,92111.19
2023-04-16T16:16:07.148Z,92112.81
2023-04-16T16:18:37.154Z,92114.47
2023-04-16T16:21:07.969Z,92110.66
2023-04-16T16:23:37.338Z,92109.31
2023-04-16T16:26:06.717Z,92107.94
2023-04-16T16:28:38.110Z,92106.47
2023-04-16T16:31:08.639Z,92107.72
2023-04-16T16:33:40.094Z,92102.25
2023-04-16T16:36:14.133Z,92109.44
2023-04-16T16:38:43.578Z,92104.50
2023-04-16T16:41:12.797Z,92108.31
2023-04-16T16:43:42.082Z,92107.03
2023-04-16T16:46:11.626Z,92103.59
2023-04-16T16:48:41.119Z,92102.09
2023-04-16T16:51:15.113Z,92099.09
2023-04-16T16:53:44.448Z,92108.75
2023-04-16T16:56:13.740Z,92106.28
2023-04-16T16:58:43.078Z,92109.03
2023-04-16T17:01:12.435Z,92116.25
2023-04-16T17:03:42.119Z,92113.06
2023-04-16T17:06:12.925Z,92117.09
2023-04-16T17:08:42.213Z,92123.88
2023-04-16T17:11:11.665Z,92111.50
2023-04-16T17:13:41.180Z,92112.25
2023-04-16T17:16:10.995Z,92114.63
2023-04-16T17:18:41.038Z,92119.19
2023-04-16T17:21:10.393Z,92118.66
2023-04-16T17:23:41.398Z,92117.84
2023-04-16T17:26:10.702Z,92118.78
2023-04-16T17:28:39.957Z,92124.31
2023-04-16T17:31:11.536Z,92122.97
2023-04-16T17:33:41.380Z,92126.56
2023-04-16T17:36:10.844Z,92125.72
2023-04-16T17:38:44.291Z,92131.25
2023-04-16T17:41:14.225Z,92133.06
2023-04-16T17:43:45.423Z,92133.34
2023-04-16T17:46:14.872Z,92138.72
2023-04-16T17:48:44.864Z,92132.78
2023-04-16T17:51:16.656Z,92139.28
2023-04-16T17:53:47.664Z,92132.69
2023-04-16T17:56:17.121Z,92140.84
2023-04-16T17:58:46.581Z,92130.91
2023-04-16T18:01:16.147Z,92144.16
2023-04-16T18:03:45.629Z,92148.84
2023-04-16T18:06:15.149Z,92146.09
2023-04-16T18:08:46.024Z,92150.34
2023-04-16T18:11:15.427Z,92147.91
2023-04-16T18:13:44.914Z,92153.66
2023-04-16T18:16:18.197Z,92155.78
2023-04-16T18:18:47.696Z,92168.16
2023-04-16T18:21:16.964Z,92154.53
2023-04-16T18:23:47.669Z,92160.56
2023-04-16T18:26:20.428Z,92158.94
2023-04-16T18:28:51.628Z,92160.16
2023-04-16T18:31:21.398Z,92157.69
2023-04-16T18:33:57.566Z,92160.59
2023-04-16T18:36:28.266Z,92158.28
2023-04-16T18:39:02.492Z,92156.19
2023-04-16T18:41:33.029Z,92159.94
2023-04-16T18:44:02.505Z,92162.81
2023-04-16T18:46:31.992Z,92158.69
2023-04-16T18:51:02.951Z,92165.84
2023-04-16T18:53:32.329Z,92164.59
2023-04-16T18:56:01.729Z,92168.59
2023-04-16T18:58:31.362Z,92172.44
2023-04-16T19:01:01.026Z,92171.63
2023-04-16T19:03:31.236Z,92170.94
2023-04-16T19:06:03.516Z,92173.09
2023-04-16T19:08:32.902Z,92179.53
2023-04-16T19:11:02.338Z,92187.25
2023-04-16T19:13:32.492Z,92171.84
2023-04-16T19:16:05.157Z,92173.78
2023-04-16T19:18:34.362Z,92179.28
2023-04-16T19:21:05.783Z,92174.59
2023-04-16T19:23:35.224Z,92180.09
2023-04-16T19:26:04.555Z,92173.47
2023-04-16T19:28:34.221Z,92179.13
2023-04-16T19:31:03.569Z,92174.41
2023-04-16T19:33:32.911Z,92172.75
2023-04-16T19:36:03.922Z,92175.63
2023-04-16T19:38:33.769Z,92178.41
2023-04-16T19:41:03.200Z,92176.88
2023-04-16T19:43:32.439Z,92170.00
2023-04-16T19:46:01.879Z,92167.38
2023-04-16T19:48:31.965Z,92162.56
2023-04-16T19:51:06.228Z,92169.84
2023-04-16T19:53:36.153Z,92165.72
2023-04-16T19:56:05.772Z,92169.97
2023-04-16T19:58:35.169Z,92163.94
2023-04-16T20:01:10.394Z,92165.84
2023-04-16T20:03:39.929Z,92161.47
2023-04-16T20:06:10.783Z,92157.31
2023-04-16T20:08:40.221Z,92158.28
2023-04-16T20:11:09.882Z,92155.94
2023-04-16T20:13:39.227Z,92159.50
2023-04-16T20:16:09.631Z,92160.47
2023-04-16T20:18:41.601Z,92154.28
2023-04-16T20:21:12.778Z,92146.72
2023-04-16T20:23:42.011Z,92152.66
2023-04-16T20:26:11.388Z,92150.97
2023-04-16T20:28:40.692Z,92148.50
2023-04-16T20:31:10.639Z,92147.69
2023-04-16T20:33:40.646Z,92148.66
2023-04-16T20:36:11.730Z,92157.69
2023-04-16T20:38:42.666Z,92150.00
2023-04-16T20:41:14.644Z,92154.28
2023-04-16T20:43:44.301Z,92146.81
2023-04-16T20:46:14.666Z,92150.28
2023-04-16T20:48:43.950Z,92149.56
2023-04-16T20:51:14.676Z,92149.72
2023-04-16T20:53:43.937Z,92139.50
2023-04-16T20:56:15.058Z,92151.97
2023-04-16T20:58:44.955Z,92148.41
2023-04-16T21:01:14.456Z,92150.19
2023-04-16T21:03:44.075Z,92145.69
2023-04-16T21:06:18.099Z,92153.13
2023-04-16T21:08:47.358Z,92152.72
2023-04-16T21:11:16.775Z,92149.81
2023-04-16T21:13:46.025Z,92146.81
2023-04-16T21:16:15.750Z,92150.38
2023-04-16T21:18:45.297Z,92145.06
2023-04-16T21:21:15.961Z,92146.28
2023-04-16T21:23:45.489Z,92142.38
2023-04-16T21:26:14.866Z,92143.00
2023-04-16T21:28:45.454Z,92136.63
2023-04-16T21:31:14.796Z,92138.94
2023-04-16T21:33:44.195Z,92139.56
2023-04-16T21:36:14.979Z,92140.94
2023-04-16T21:38:44.299Z,92135.16
2023-04-16T21:41:13.744Z,92137.56
2023-04-16T21:43:43.185Z,92140.41
2023-04-16T21:46:12.569Z,92140.94
2023-04-16T21:51:06.975Z,92140.69
2023-04-16T21:53:37.116Z,92136.94
2023-04-16T21:56:06.966Z,92140.44
2023-04-16T21:58:36.225Z,92136.69
2023-04-16T22:01:06.190Z,92138.63
2023-04-16T22:03:40.449Z,92136.78
2023-04-16T22:06:11.856Z,92129.81
2023-04-16T22:08:41.197Z,92127.38
2023-04-16T22:11:10.746Z,92121.63
2023-04-16T22:13:42.290Z,92123.81
2023-04-16T22:16:12.569Z,92118.44
2023-04-16T22:18:43.012Z,92119.94
2023-04-16T22:21:13.861Z,92126.50
2023-04-16T22:23:43.254Z,92117.06
2023-04-16T22:26:13.107Z,92105.19
2023-04-16T22:28:42.382Z,92115.50
2023-04-16T22:31:11.671Z,92107.53
2023-04-16T22:33:41.053Z,92105.50
2023-04-16T22:36:12.465Z,92104.56
2023-04-16T22:38:41.982Z,92099.19
2023-04-16T22:41:11.369Z,92105.38
2023-04-16T22:43:40.869Z,92109.88
2023-04-16T22:46:10.357Z,92104.00
2023-04-16T22:48:41.006Z,92097.25
2023-04-16T22:51:12.774Z,92101.78
2023-04-16T22:53:41.976Z,92105.31
2023-04-16T22:56:12.100Z,92097.06
2023-04-16T22:58:41.331Z,92101.59
2023-04-16T23:01:10.691Z,92091.56
2023-04-16T23:03:40.143Z,92094.28
2023-04-16T23:06:09.818Z,92093.59
2023-04-16T23:08:40.516Z,92100.03
2023-04-16T23:11:09.896Z,92089.59
2023-04-16T23:13:39.350Z,92085.34
2023-04-16T23:16:09.770Z,92093.16
2023-04-16T23:18:39.164Z,92086.41
2023-04-16T23:21:08.571Z,92088.34
2023-04-16T23:23:39.449Z,92093.56
2023-04-16T23:26:08.733Z,92091.63
2023-04-16T23:28:38.054Z,92094.25
2023-04-16T23:31:07.763Z,92089.84
2023-04-16T23:33:37.201Z,92084.91
2023-04-16T23:36:07.428Z,92092.03
2023-04-16T23:38:36.783Z,92093.56
2023-04-16T23:41:07.778Z,92089.84
2023-04-16T23:43:37.043Z,92088.34
2023-04-16T23:46:06.541Z,92084.53
2023-04-16T23:48:35.905Z,92078.63
2023-04-16T23:51:05.525Z,92077.81
2023-04-16T23:53:36.550Z,92082.06
2023-04-16T23:56:11.259Z,92083.16
2023-04-16T23:58:40.959Z,92091.00
